createdAt,value
2023-04-04T00:00:14.837Z,2.10
2023-04-04T00:02:41.855Z,1.90
2023-04-04T00:05:08.941Z,1.77
2023-04-04T00:07:35.971Z,2.03
2023-04-04T00:10:02.972Z,1.98
2023-04-04T00:12:30.008Z,1.73
2023-04-04T00:14:57.776Z,1.90
2023-04-04T00:17:24.732Z,2.15
2023-04-04T00:19:52.317Z,2.08
2023-04-04T00:22:19.357Z,1.65
2023-04-04T00:24:46.187Z,2.05
2023-04-04T00:27:13.360Z,2.45
2023-04-04T00:29:40.425Z,1.80
2023-04-04T00:32:07.711Z,2.05
2023-04-04T00:34:36.672Z,2.13
2023-04-04T00:37:03.823Z,1.88
2023-04-04T00:39:30.879Z,2.30
2023-04-04T00:41:58.135Z,2.17
2023-04-04T00:44:25.295Z,2.42
2023-04-04T00:46:52.548Z,2.50
2023-04-04T00:49:19.154Z,2.30
2023-04-04T00:51:46.411Z,1.92
2023-04-04T00:54:13.300Z,2.45
2023-04-04T00:56:40.363Z,2.38
2023-04-04T00:59:10.947Z,2.22
2023-04-04T01:01:38.318Z,2.00
2023-04-04T01:04:06.064Z,2.13
2023-04-04T01:06:33.282Z,1.75
2023-04-04T01:09:00.337Z,2.17
2023-04-04T01:11:28.306Z,2.22
2023-04-04T01:13:59.301Z,1.92
2023-04-04T01:16:26.548Z,3.15
2023-04-04T01:18:54.683Z,2.50
2023-04-04T01:21:23.210Z,1.80
2023-04-04T01:24:00.370Z,2.42
2023-04-04T01:26:27.927Z,2.85
2023-04-04T01:28:55.284Z,1.90
2023-04-04T01:31:42.206Z,1.98
2023-04-04T01:34:15.908Z,2.47
2023-04-04T01:37:03.016Z,2.47
2023-04-04T01:39:36.310Z,3.40
2023-04-04T01:42:04.706Z,1.85
2023-04-04T01:44:34.614Z,2.38
2023-04-04T01:47:02.169Z,1.98
2023-04-04T01:49:30.156Z,2.30
2023-04-04T01:51:58.097Z,2.53
2023-04-04T01:54:25.098Z,2.72
2023-04-04T01:56:53.565Z,1.88
2023-04-04T01:59:20.460Z,2.65
2023-04-04T02:01:47.262Z,2.53
2023-04-04T02:04:14.750Z,2.08
2023-04-04T02:06:41.891Z,1.88
2023-04-04T02:09:09.047Z,2.55
2023-04-04T02:11:36.096Z,2.22
2023-04-04T02:14:02.957Z,2.17
2023-04-04T02:16:30.094Z,2.25
2023-04-04T02:18:57.049Z,1.60
2023-04-04T02:21:26.349Z,2.20
2023-04-04T02:23:53.486Z,2.25
2023-04-04T02:26:20.162Z,2.50
2023-04-04T02:28:47.099Z,1.50
2023-04-04T02:31:14.078Z,2.75
2023-04-04T02:33:40.901Z,1.65
2023-04-04T02:36:07.972Z,1.77
2023-04-04T02:38:35.033Z,1.20
2023-04-04T02:41:02.260Z,1.42
2023-04-04T02:43:28.974Z,1.90
2023-04-04T02:45:55.669Z,1.35
2023-04-04T02:48:22.417Z,1.83
2023-04-04T02:50:49.477Z,2.00
2023-04-04T02:53:16.530Z,2.08
2023-04-04T02:55:43.381Z,2.03
2023-04-04T02:58:10.547Z,1.70
2023-04-04T03:00:37.447Z,2.60
2023-04-04T03:03:04.862Z,2.53
2023-04-04T03:05:32.315Z,2.00
2023-04-04T03:07:59.665Z,1.90
2023-04-04T03:10:28.173Z,1.92
2023-04-04T03:12:54.806Z,1.30
2023-04-04T03:15:21.669Z,2.13
2023-04-04T03:17:48.887Z,2.60
2023-04-04T03:20:16.479Z,1.88
2023-04-04T03:22:43.188Z,2.28
2023-04-04T03:25:10.102Z,2.08
2023-04-04T03:27:37.030Z,2.83
2023-04-04T03:30:04.140Z,1.95
2023-04-04T03:32:31.069Z,2.67
2023-04-04T03:34:57.864Z,2.33
2023-04-04T03:37:24.780Z,2.03
2023-04-04T03:39:51.872Z,2.08
2023-04-04T03:42:18.633Z,2.40
2023-04-04T03:44:45.678Z,2.65
2023-04-04T03:47:12.283Z,2.58
2023-04-04T03:49:38.997Z,1.98
2023-04-04T03:52:08.583Z,2.50
2023-04-04T03:54:35.328Z,2.65
2023-04-04T03:57:02.334Z,2.25
2023-04-04T03:59:29.484Z,2.42
2023-04-04T04:01:56.498Z,2.45
2023-04-04T04:04:23.461Z,2.53
2023-04-04T04:06:50.296Z,2.50
2023-04-04T04:09:17.094Z,2.17
2023-04-04T04:11:44.256Z,2.08
2023-04-04T04:14:11.262Z,2.47
2023-04-04T04:16:39.803Z,2.78
2023-04-04T04:19:06.590Z,2.72
2023-04-04T04:21:36.356Z,3.28
2023-04-04T04:24:04.014Z,3.92
2023-04-04T04:26:30.986Z,2.47
2023-04-04T04:28:57.716Z,2.47
2023-04-04T04:31:24.497Z,3.85
2023-04-04T04:33:51.738Z,2.95
2023-04-04T04:36:21.131Z,2.60
2023-04-04T04:38:48.249Z,2.15
2023-04-04T04:41:15.051Z,2.35
2023-04-04T04:43:41.734Z,3.08
2023-04-04T04:46:11.390Z,2.95
2023-04-04T04:48:38.032Z,2.65
2023-04-04T04:51:04.591Z,2.72
2023-04-04T04:53:31.544Z,2.55
2023-04-04T04:55:58.400Z,2.60
2023-04-04T04:58:26.924Z,2.33
2023-04-04T05:00:56.981Z,2.70
2023-04-04T05:03:23.992Z,2.80
2023-04-04T05:05:51.730Z,2.78
2023-04-04T05:08:19.103Z,3.63
2023-04-04T05:10:45.832Z,3.22
2023-04-04T05:13:15.559Z,3.45
2023-04-04T05:15:42.360Z,2.85
2023-04-04T05:18:09.144Z,2.67
2023-04-04T05:20:35.975Z,2.75
2023-04-04T05:23:02.647Z,2.83
2023-04-04T05:25:29.383Z,2.80
2023-04-04T05:28:01.042Z,3.15
2023-04-04T05:30:28.104Z,3.20
2023-04-04T05:32:55.717Z,3.72
2023-04-04T05:35:22.524Z,2.70
2023-04-04T05:37:49.979Z,2.72
2023-04-04T05:40:16.719Z,3.28
2023-04-04T05:42:46.695Z,2.75
2023-04-04T05:45:13.800Z,2.88
2023-04-04T05:47:43.765Z,3.85
2023-04-04T05:50:11.464Z,2.88
2023-04-04T05:52:38.347Z,2.67
2023-04-04T05:55:13.018Z,1.83
2023-04-04T05:57:48.205Z,3.33
2023-04-04T06:00:15.863Z,1.95
2023-04-04T06:02:42.906Z,2.35
2023-04-04T06:05:09.938Z,2.30
2023-04-04T06:07:39.182Z,2.70
2023-04-04T06:10:09.230Z,2.70
2023-04-04T06:12:36.044Z,3.03
2023-04-04T06:15:05.556Z,3.28
2023-04-04T06:17:32.332Z,2.42
2023-04-04T06:20:00.613Z,3.40
2023-04-04T06:22:27.844Z,2.85
2023-04-04T06:24:54.490Z,2.80
2023-04-04T06:27:21.243Z,2.80
2023-04-04T06:29:48.284Z,2.60
2023-04-04T06:32:18.695Z,1.80
2023-04-04T06:34:45.461Z,2.97
2023-04-04T06:37:12.174Z,2.80
2023-04-04T06:39:39.025Z,2.25
2023-04-04T06:42:06.298Z,2.58
2023-04-04T06:44:32.963Z,2.60
2023-04-04T06:47:00.208Z,2.13
2023-04-04T06:49:26.973Z,2.47
2023-04-04T06:51:54.293Z,2.67
2023-04-04T06:54:22.202Z,3.25
2023-04-04T06:56:48.744Z,2.40
2023-04-04T06:59:18.365Z,1.73
2023-04-04T07:01:45.704Z,2.47
2023-04-04T07:04:12.565Z,2.13
2023-04-04T07:06:39.384Z,2.58
2023-04-04T07:09:08.918Z,1.90
2023-04-04T07:11:39.806Z,2.38
2023-04-04T07:14:06.566Z,2.85
2023-04-04T07:16:33.280Z,2.83
2023-04-04T07:19:00.343Z,1.83
2023-04-04T07:21:27.013Z,1.95
2023-04-04T07:23:54.275Z,1.95
2023-04-04T07:26:21.741Z,1.75
2023-04-04T07:28:48.246Z,1.55
2023-04-04T07:31:15.090Z,1.75
2023-04-04T07:33:41.681Z,2.28
2023-04-04T07:36:09.063Z,2.03
2023-04-04T07:38:36.300Z,1.77
2023-04-04T07:41:04.250Z,2.15
2023-04-04T07:43:33.880Z,2.00
2023-04-04T07:46:00.912Z,2.17
2023-04-04T07:48:29.031Z,1.77
2023-04-04T07:50:55.715Z,2.10
2023-04-04T07:53:22.876Z,2.10
2023-04-04T07:55:49.556Z,2.00
2023-04-04T07:58:18.863Z,1.60
2023-04-04T08:00:45.680Z,2.47
2023-04-04T08:03:12.666Z,2.28
2023-04-04T08:05:39.783Z,2.03
2023-04-04T08:08:06.528Z,2.30
2023-04-04T08:10:36.894Z,2.88
2023-04-04T08:13:06.370Z,2.55
2023-04-04T08:15:33.351Z,1.35
2023-04-04T08:18:01.034Z,2.38
2023-04-04T08:20:28.770Z,1.70
2023-04-04T08:22:55.747Z,1.67
2023-04-04T08:25:23.215Z,1.85
2023-04-04T08:27:50.148Z,1.75
2023-04-04T08:30:19.666Z,1.05
2023-04-04T08:32:47.538Z,1.75
2023-04-04T08:35:14.501Z,1.00
2023-04-04T08:37:45.644Z,1.80
2023-04-04T08:40:20.039Z,1.83
2023-04-04T08:42:47.288Z,1.20
2023-04-04T08:45:17.230Z,1.50
2023-04-04T08:47:44.578Z,1.17
2023-04-04T08:50:12.079Z,1.60
2023-04-04T08:52:39.742Z,1.73
2023-04-04T08:55:06.785Z,1.60
2023-04-04T08:57:33.952Z,1.00
2023-04-04T09:00:00.920Z,1.90
2023-04-04T09:02:34.649Z,1.48
2023-04-04T09:05:06.925Z,1.55
2023-04-04T09:10:05.802Z,1.25
2023-04-04T09:12:32.863Z,1.73
2023-04-04T09:15:00.739Z,1.08
2023-04-04T09:17:27.902Z,1.02
2023-04-04T09:19:54.965Z,1.00
2023-04-04T09:22:22.205Z,0.88
2023-04-04T09:24:50.988Z,1.25
2023-04-04T09:27:17.836Z,0.90
2023-04-04T09:29:45.093Z,1.15
2023-04-04T09:32:16.367Z,1.02
2023-04-04T09:34:44.154Z,1.50
2023-04-04T09:37:14.644Z,0.80
2023-04-04T09:39:42.426Z,2.13
2023-04-04T09:42:09.215Z,1.30
2023-04-04T09:44:37.260Z,1.10
2023-04-04T09:47:36.437Z,1.42
2023-04-04T09:50:07.699Z,0.85
2023-04-04T09:52:37.867Z,1.17
2023-04-04T09:55:05.587Z,1.08
2023-04-04T09:57:38.861Z,1.00
2023-04-04T10:00:09.459Z,0.98
2023-04-04T10:02:41.415Z,2.15
2023-04-04T10:05:11.597Z,1.17
2023-04-04T10:07:44.355Z,0.98
2023-04-04T10:10:11.557Z,0.88
2023-04-04T10:12:39.102Z,1.00
2023-04-04T10:15:06.257Z,0.90
2023-04-04T10:17:39.690Z,1.27
2023-04-04T10:20:07.128Z,1.15
2023-04-04T10:22:34.301Z,1.52
2023-04-04T10:25:01.340Z,1.48
2023-04-04T10:27:28.342Z,1.02
2023-04-04T10:29:55.222Z,1.80
2023-04-04T10:32:30.451Z,1.63
2023-04-04T10:35:03.361Z,1.23
2023-04-04T10:37:32.782Z,1.60
2023-04-04T10:40:06.161Z,0.93
2023-04-04T10:42:36.292Z,1.30
2023-04-04T10:45:17.026Z,1.73
2023-04-04T10:47:47.764Z,1.65
2023-04-04T10:50:15.731Z,0.65
2023-04-04T10:52:43.743Z,1.38
2023-04-04T10:55:14.199Z,1.75
2023-04-04T10:57:45.534Z,0.88
2023-04-04T11:00:18.280Z,1.33
2023-04-04T11:02:48.742Z,1.67
2023-04-04T11:05:22.984Z,0.70
2023-04-04T11:08:08.777Z,1.10
2023-04-04T11:10:37.046Z,0.57
2023-04-04T11:13:24.243Z,1.15
2023-04-04T11:15:57.991Z,1.25
2023-04-04T11:18:43.605Z,1.60
2023-04-04T11:21:20.392Z,1.55
2023-04-04T11:23:50.257Z,1.08
2023-04-04T11:26:29.363Z,0.80
2023-04-04T11:28:59.882Z,1.10
2023-04-04T11:31:26.658Z,1.05
2023-04-04T11:34:14.051Z,1.17
2023-04-04T11:36:41.577Z,1.85
2023-04-04T11:39:15.679Z,1.10
2023-04-04T11:42:03.788Z,1.55
2023-04-04T11:44:31.869Z,1.85
2023-04-04T11:47:04.396Z,2.05
2023-04-04T11:49:35.516Z,1.60
2023-04-04T11:52:06.973Z,1.27
2023-04-04T11:54:33.928Z,0.60
2023-04-04T11:57:03.978Z,0.95
2023-04-04T11:59:31.637Z,1.02
2023-04-04T12:01:58.439Z,1.10
2023-04-04T12:04:25.754Z,1.27
2023-04-04T12:06:53.646Z,1.55
2023-04-04T12:09:20.958Z,1.50
2023-04-04T12:12:03.924Z,1.08
2023-04-04T12:14:32.453Z,1.63
2023-04-04T12:17:03.149Z,1.38
2023-04-04T12:19:30.034Z,1.08
2023-04-04T12:21:57.752Z,1.30
2023-04-04T12:24:24.794Z,1.38
2023-04-04T12:26:52.645Z,1.83
2023-04-04T12:29:20.899Z,1.77
2023-04-04T12:31:48.389Z,1.33
2023-04-04T12:36:59.228Z,1.70
2023-04-04T12:39:27.870Z,1.83
2023-04-04T12:41:55.528Z,1.55
2023-04-04T12:44:28.119Z,1.77
2023-04-04T12:46:57.984Z,1.58
2023-04-04T12:49:28.232Z,1.08
2023-04-04T12:51:54.957Z,1.42
2023-04-04T12:54:29.144Z,1.52
2023-04-04T12:56:57.547Z,1.83
2023-04-04T12:59:25.046Z,1.77
2023-04-04T13:01:52.024Z,1.23
2023-04-04T13:04:20.075Z,1.73
2023-04-04T13:06:50.818Z,1.33
2023-04-04T13:09:19.374Z,1.98
2023-04-04T13:12:00.207Z,1.42
2023-04-04T13:14:28.052Z,1.13
2023-04-04T13:17:10.010Z,1.27
2023-04-04T13:19:36.765Z,1.23
2023-04-04T13:22:03.832Z,1.60
2023-04-04T13:24:30.811Z,1.70
2023-04-04T13:26:57.512Z,1.38
2023-04-04T13:29:25.589Z,1.00
2023-04-04T13:31:53.618Z,1.40
2023-04-04T13:34:22.140Z,1.45
2023-04-04T13:36:49.186Z,1.33
2023-04-04T13:39:16.160Z,0.90
2023-04-04T13:41:42.954Z,1.45
2023-04-04T13:44:09.747Z,1.45
2023-04-04T13:46:36.438Z,2.00
2023-04-04T13:49:03.881Z,1.02
2023-04-04T13:51:33.936Z,1.27
2023-04-04T13:54:00.489Z,1.02
2023-04-04T13:56:28.024Z,1.48
2023-04-04T13:58:54.875Z,1.33
2023-04-04T14:01:22.443Z,1.00
2023-04-04T14:03:49.224Z,1.33
2023-04-04T14:06:16.332Z,1.10
2023-04-04T14:08:43.071Z,0.82
2023-04-04T14:11:10.430Z,1.17
2023-04-04T14:13:37.269Z,1.30
2023-04-04T14:16:03.928Z,0.95
2023-04-04T14:18:31.270Z,1.65
2023-04-04T14:21:07.167Z,1.55
2023-04-04T14:23:33.980Z,0.80
2023-04-04T14:26:03.324Z,1.40
2023-04-04T14:28:30.438Z,1.45
2023-04-04T14:30:57.954Z,1.15
2023-04-04T14:33:24.912Z,1.42
2023-04-04T14:35:51.860Z,1.13
2023-04-04T14:38:18.447Z,1.33
2023-04-04T14:40:45.430Z,1.65
2023-04-04T14:43:12.299Z,1.13
2023-04-04T14:45:39.171Z,1.02
2023-04-04T14:48:07.227Z,1.52
2023-04-04T14:50:34.101Z,0.90
2023-04-04T14:53:01.039Z,1.65
2023-04-04T14:55:27.773Z,1.55
2023-04-04T15:00:24.165Z,1.25
2023-04-04T15:02:51.594Z,1.00
2023-04-04T15:05:19.070Z,2.58
2023-04-04T15:07:46.483Z,1.60
2023-04-04T15:10:13.396Z,1.75
2023-04-04T15:12:40.636Z,1.10
2023-04-04T15:15:07.522Z,2.15
2023-04-04T15:17:34.203Z,1.55
2023-04-04T15:20:01.126Z,1.17
2023-04-04T15:22:27.848Z,1.20
2023-04-04T15:24:56.486Z,0.77
2023-04-04T15:27:23.089Z,1.77
2023-04-04T15:29:49.707Z,0.93
2023-04-04T15:32:16.509Z,1.00
2023-04-04T15:34:43.148Z,0.75
2023-04-04T15:37:10.156Z,1.08
2023-04-04T15:39:46.104Z,0.50
2023-04-04T15:42:18.811Z,1.75
2023-04-04T15:44:48.045Z,1.00
2023-04-04T15:47:16.092Z,0.98
2023-04-04T15:49:42.635Z,1.67
2023-04-04T15:52:09.315Z,1.15
2023-04-04T15:54:36.225Z,1.05
2023-04-04T15:57:02.994Z,1.85
2023-04-04T15:59:32.032Z,0.80
2023-04-04T16:01:59.079Z,0.85
2023-04-04T16:04:25.657Z,1.05
2023-04-04T16:06:52.440Z,0.65
2023-04-04T16:09:19.085Z,1.65
2023-04-04T16:11:46.007Z,1.10
2023-04-04T16:14:13.927Z,0.65
2023-04-04T16:16:41.578Z,1.45
2023-04-04T16:19:08.554Z,1.52
2023-04-04T16:21:35.380Z,1.65
2023-04-04T16:24:03.877Z,0.90
2023-04-04T16:26:30.927Z,1.00
2023-04-04T16:28:57.873Z,1.05
2023-04-04T16:31:25.096Z,1.00
2023-04-04T16:33:52.088Z,0.52
2023-04-04T16:36:19.059Z,1.05
2023-04-04T16:38:46.214Z,0.77
2023-04-04T16:41:12.942Z,1.65
2023-04-04T16:43:39.894Z,1.10
2023-04-04T16:46:06.712Z,1.10
2023-04-04T16:48:33.697Z,1.35
2023-04-04T16:51:01.839Z,0.82
2023-04-04T16:53:28.716Z,0.95
2023-04-04T16:55:55.686Z,1.35
2023-04-04T16:58:22.340Z,1.35
2023-04-04T17:00:49.288Z,0.95
2023-04-04T17:03:16.746Z,1.15
2023-04-04T17:05:43.695Z,1.38
2023-04-04T17:08:10.530Z,0.82
2023-04-04T17:10:40.682Z,0.98
2023-04-04T17:13:07.964Z,1.17
2023-04-04T17:15:35.275Z,0.95
2023-04-04T17:18:02.055Z,1.48
2023-04-04T17:20:30.635Z,0.70
2023-04-04T17:22:59.423Z,1.48
2023-04-04T17:25:29.361Z,1.85
2023-04-04T17:27:56.475Z,0.77
2023-04-04T17:30:23.405Z,1.20
2023-04-04T17:32:53.213Z,1.40
2023-04-04T17:35:20.009Z,1.13
2023-04-04T17:37:50.135Z,1.67
2023-04-04T17:40:16.876Z,1.27
2023-04-04T17:42:43.630Z,1.23
2023-04-04T17:45:10.793Z,1.48
2023-04-04T17:47:38.061Z,1.30
2023-04-04T17:50:05.366Z,1.17
2023-04-04T17:52:32.357Z,1.42
2023-04-04T17:54:59.512Z,1.00
2023-04-04T17:57:26.560Z,1.13
2023-04-04T17:59:53.270Z,1.15
2023-04-04T18:02:20.297Z,0.82
2023-04-04T18:04:51.713Z,1.25
2023-04-04T18:07:19.487Z,1.60
2023-04-04T18:09:47.151Z,1.13
2023-04-04T18:12:14.200Z,1.55
2023-04-04T18:14:41.163Z,1.60
2023-04-04T18:17:11.803Z,1.23
2023-04-04T18:19:39.126Z,1.88
2023-04-04T18:22:06.765Z,2.47
2023-04-04T18:24:33.371Z,2.10
2023-04-04T18:27:00.318Z,2.00
2023-04-04T18:29:27.395Z,2.28
2023-04-04T18:31:54.197Z,1.65
2023-04-04T18:34:22.143Z,2.00
2023-04-04T18:36:49.875Z,2.47
2023-04-04T18:39:18.712Z,2.88
2023-04-04T18:41:46.532Z,3.20
2023-04-04T18:44:13.590Z,3.15
2023-04-04T18:46:40.906Z,3.60
2023-04-04T18:49:08.070Z,4.75
2023-04-04T18:51:35.148Z,3.10
2023-04-04T18:54:02.428Z,4.75
2023-04-04T18:56:29.270Z,3.20
2023-04-04T18:58:56.578Z,4.55
2023-04-04T19:01:24.016Z,5.38
2023-04-04T19:03:55.552Z,5.72
2023-04-04T19:06:25.462Z,5.50
2023-04-04T19:08:53.539Z,5.68
2023-04-04T19:11:20.488Z,6.32
2023-04-04T19:13:47.233Z,6.10
2023-04-04T19:16:14.031Z,6.13
2023-04-04T19:18:41.008Z,7.72
2023-04-04T19:21:10.046Z,7.00
2023-04-04T19:23:37.923Z,7.97
2023-04-04T19:26:04.777Z,7.45
2023-04-04T19:28:34.767Z,7.15
2023-04-04T19:31:02.256Z,7.35
2023-04-04T19:33:29.038Z,9.00
2023-04-04T19:36:01.768Z,8.45
2023-04-04T19:38:29.960Z,7.25
2023-04-04T19:41:01.220Z,7.75
2023-04-04T19:43:29.016Z,7.18
2023-04-04T19:45:56.805Z,7.68
2023-04-04T19:48:43.337Z,8.13
2023-04-04T19:51:11.364Z,9.07
2023-04-04T19:53:38.242Z,7.50
2023-04-04T19:56:07.634Z,7.05
2023-04-04T19:58:34.621Z,8.40
2023-04-04T20:01:01.337Z,8.23
2023-04-04T20:03:34.272Z,8.55
2023-04-04T20:06:12.020Z,8.10
2023-04-04T20:08:39.824Z,9.70
2023-04-04T20:11:07.346Z,9.82
2023-04-04T20:13:35.543Z,8.18
2023-04-04T20:16:03.952Z,10.52
2023-04-04T20:18:32.459Z,10.77
2023-04-04T20:21:07.049Z,11.93
2023-04-04T20:23:40.530Z,12.43
2023-04-04T20:26:07.898Z,14.07
2023-04-04T20:28:35.458Z,15.48
2023-04-04T20:31:05.667Z,15.13
2023-04-04T20:33:41.640Z,16.17
2023-04-04T20:36:12.674Z,17.58
2023-04-04T20:38:40.957Z,16.95
2023-04-04T20:41:15.490Z,15.75
2023-04-04T20:43:44.745Z,18.13
2023-04-04T20:46:12.936Z,21.55
2023-04-04T20:48:40.291Z,19.02
2023-04-04T20:51:26.069Z,19.35
2023-04-04T20:53:53.450Z,20.02
2023-04-04T20:56:39.064Z,20.77
2023-04-04T20:59:27.743Z,19.52
2023-04-04T21:01:54.754Z,21.10
2023-04-04T21:04:22.775Z,20.70
2023-04-04T21:06:49.488Z,21.75
2023-04-04T21:09:16.790Z,21.33
2023-04-04T21:11:43.949Z,21.65
2023-04-04T21:14:23.643Z,20.75
2023-04-04T21:16:50.895Z,22.65
2023-04-04T21:19:22.747Z,20.15
2023-04-04T21:21:50.172Z,21.60
2023-04-04T21:24:19.941Z,22.17
2023-04-04T21:26:46.713Z,22.15
2023-04-04T21:29:19.672Z,22.38
2023-04-04T21:31:48.571Z,20.70
2023-04-04T21:34:16.452Z,20.05
2023-04-04T21:36:44.108Z,19.60
2023-04-04T21:39:15.362Z,20.38
2023-04-04T21:41:44.214Z,18.92
2023-04-04T21:44:11.141Z,17.83
2023-04-04T21:46:38.714Z,19.23
2023-04-04T21:49:06.287Z,19.83
2023-04-04T21:51:33.444Z,17.08
2023-04-04T21:54:01.054Z,18.10
2023-04-04T21:56:31.379Z,18.02
2023-04-04T21:59:01.473Z,19.17
2023-04-04T22:01:30.595Z,17.92
2023-04-04T22:03:58.175Z,16.42
2023-04-04T22:06:26.523Z,15.65
2023-04-04T22:08:56.886Z,16.83
2023-04-04T22:11:26.187Z,16.88
2023-04-04T22:13:53.733Z,15.50
2023-04-04T22:16:20.340Z,14.23
2023-04-04T22:18:48.106Z,15.15
2023-04-04T22:21:15.443Z,14.98
2023-04-04T22:23:42.512Z,14.07
2023-04-04T22:26:11.125Z,15.07
2023-04-04T22:28:38.771Z,13.85
2023-04-04T22:31:06.164Z,13.30
2023-04-04T22:33:34.216Z,13.88
2023-04-04T22:36:01.183Z,14.95
2023-04-04T22:38:28.451Z,12.75
2023-04-04T22:40:56.478Z,11.07
2023-04-04T22:43:23.484Z,14.88
2023-04-04T22:45:50.165Z,11.38
2023-04-04T22:48:17.443Z,13.77
2023-04-04T22:50:45.182Z,10.88
2023-04-04T22:53:13.238Z,12.02
2023-04-04T22:55:40.695Z,10.55
2023-04-04T22:58:07.698Z,11.13
2023-04-04T23:00:34.762Z,10.07
2023-04-04T23:03:02.419Z,10.20
2023-04-04T23:05:29.690Z,10.98
2023-04-04T23:08:01.549Z,10.35
2023-04-04T23:10:28.469Z,9.18
2023-04-04T23:12:55.173Z,9.32
2023-04-04T23:15:21.890Z,9.90
2023-04-04T23:17:48.722Z,10.20
2023-04-04T23:20:16.056Z,9.60
2023-04-04T23:22:42.864Z,9.18
2023-04-04T23:25:09.744Z,8.60
2023-04-04T23:27:36.593Z,9.23
2023-04-04T23:30:04.150Z,10.15
2023-04-04T23:32:32.660Z,8.30
2023-04-04T23:34:59.333Z,7.45
2023-04-04T23:37:26.238Z,7.43
2023-04-04T23:39:52.853Z,8.10
2023-04-04T23:42:19.496Z,7.47
2023-04-04T23:44:46.062Z,8.02
2023-04-04T23:47:12.829Z,7.20
2023-04-04T23:49:39.465Z,7.55
2023-04-04T23:52:06.269Z,7.25
2023-04-04T23:54:32.957Z,7.32
2023-04-04T23:56:59.599Z,8.65
2023-04-04T23:59:27.171Z,7.40
